Time;durP1;ratioP1;P1;durP2;ratioP2;P2;SDS_P1;SDS_P2;PMS_P1;PMS_P2;Temp;Humidity;BMP_temperature;BMP_pressure;BME280_temperature;BME280_humidity;BME280_pressure;Samples;Min_cycle;Max_cycle;Signal;HPM_P1;HPM_P2
2024/04/12 00:01:54;;;;;;;18.95;10.48;;;13.60;99.90;;;;;;11475482;25;20162;-60
2024/04/12 00:07:13;;;;;;;13.00;9.02;;;13.80;99.90;;;;;;11472981;25;20038;-60
2024/04/12 00:12:17;;;;;;;13.93;8.57;;;14.10;99.90;;;;;;11479602;25;20008;-60
2024/04/12 00:17:24;;;;;;;15.38;9.57;;;14.00;99.90;;;;;;11464718;25;20363;-57
2024/04/12 00:22:30;;;;;;;12.40;8.77;;;13.90;99.90;;;;;;11487834;25;20026;-60
2024/04/12 00:27:37;;;;;;;13.40;9.93;;;14.10;99.90;;;;;;11473826;25;20018;-60
2024/04/12 00:32:56;;;;;;;15.38;10.52;;;14.10;99.90;;;;;;11474507;25;20013;-59
2024/04/12 00:38:09;;;;;;;12.82;9.05;;;13.80;99.90;;;;;;11463052;25;20016;-60
2024/04/12 00:43:18;;;;;;;10.90;8.48;;;14.00;99.90;;;;;;11467766;25;20054;-59
2024/04/12 00:48:28;;;;;;;16.42;9.77;;;14.00;99.90;;;;;;11470218;25;20322;-58
2024/04/12 00:53:35;;;;;;;12.50;10.00;;;14.00;99.90;;;;;;11479045;25;20079;-59
2024/04/12 00:58:41;;;;;;;14.55;10.18;;;14.10;99.90;;;;;;11479639;25;20500;-57
2024/04/12 01:03:53;;;;;;;16.30;10.20;;;13.90;99.90;;;;;;11477550;25;20134;-59
2024/04/12 01:09:10;;;;;;;15.90;10.95;;;13.80;99.90;;;;;;11475685;25;20088;-58
2024/04/12 01:14:16;;;;;;;14.43;9.38;;;14.00;99.90;;;;;;11476271;25;20015;-58
2024/04/12 01:19:23;;;;;;;17.15;10.60;;;13.90;99.90;;;;;;11484142;25;20018;-59
2024/04/12 01:24:29;;;;;;;22.52;11.05;;;14.10;99.90;;;;;;11483211;25;20407;-59
2024/04/12 01:29:42;;;;;;;15.63;10.70;;;14.00;99.90;;;;;;11481162;25;20013;-59
2024/04/12 01:34:50;;;;;;;;;;;14.20;99.90;;;;;;11479501;25;20517;-59
2024/04/12 01:40:01;;;;;;;23.88;14.07;;;13.90;99.90;;;;;;11478118;25;19923;-57
2024/04/12 01:45:16;;;;;;;23.15;15.57;;;13.60;99.90;;;;;;11482311;25;20009;-58
2024/04/12 01:50:22;;;;;;;27.10;14.55;;;13.90;99.90;;;;;;11494675;25;20008;-59
2024/04/12 01:55:32;;;;;;;26.52;15.73;;;13.70;99.90;;;;;;11364211;26;20042;-58
2024/04/12 02:00:45;;;;;;;31.17;17.38;;;14.10;99.90;;;;;;11362873;26;20021;-59
2024/04/12 02:05:54;;;;;;;30.35;15.73;;;14.10;99.90;;;;;;11357162;26;20543;-57
2024/04/12 02:10:58;;;;;;;31.70;17.80;;;14.00;99.90;;;;;;11364088;26;20005;-59
2024/04/12 02:16:06;;;;;;;31.08;16.77;;;14.00;99.90;;;;;;11354419;26;20097;-57
2024/04/12 02:21:10;;;;;;;25.20;13.27;;;13.80;99.90;;;;;;11358178;26;20081;-58
2024/04/12 02:26:15;;;;;;;27.80;15.25;;;;;;;;;;11350009;26;20781;-58
2024/04/12 02:31:23;;;;;;;26.00;13.63;;;14.30;99.90;;;;;;11364890;26;20696;-59
2024/04/12 02:36:30;;;;;;;23.05;11.88;;;13.90;99.90;;;;;;11355510;26;20041;-59
2024/04/12 02:41:42;;;;;;;24.55;11.95;;;14.20;99.90;;;;;;11348604;26;20018;-57
2024/04/12 02:46:51;;;;;;;21.45;10.82;;;14.00;99.90;;;;;;11348492;26;20465;-59
2024/04/12 02:51:59;;;;;;;24.20;10.48;;;14.00;99.90;;;;;;11396029;25;20004;-59
2024/04/12 02:57:06;;;;;;;23.95;12.48;;;14.10;99.90;;;;;;11481752;25;20004;-59
2024/04/12 03:02:13;;;;;;;21.65;10.43;;;13.90;99.90;;;;;;11478333;25;20004;-59
2024/04/12 03:07:23;;;;;;;19.85;10.85;;;14.20;99.90;;;;;;11479548;25;20004;-59
2024/04/12 03:12:36;;;;;;;14.85;8.23;;;14.40;99.90;;;;;;11476867;25;20032;-59
2024/04/12 03:17:49;;;;;;;15.38;8.20;;;14.40;99.90;;;;;;11482359;25;20695;-61
2024/04/12 03:22:57;;;;;;;20.88;8.48;;;14.00;99.90;;;;;;11470031;25;20111;-61
2024/04/12 03:28:08;;;;;;;19.30;8.38;;;13.80;99.90;;;;;;11478501;25;20032;-58
2024/04/12 03:33:16;;;;;;;14.63;8.38;;;13.70;99.90;;;;;;11483954;25;20781;-61
2024/04/12 03:38:36;;;;;;;12.45;7.57;;;13.60;99.90;;;;;;11465192;25;20026;-58
2024/04/12 03:43:47;;;;;;;16.10;8.75;;;13.80;99.90;;;;;;11479968;25;20016;-60
2024/04/12 03:49:01;;;;;;;14.82;7.47;;;13.60;99.90;;;;;;11477875;25;20008;-59
2024/04/12 03:54:11;;;;;;;16.30;7.95;;;13.60;99.90;;;;;;11465790;25;20015;-59
2024/04/12 03:59:17;;;;;;;13.82;7.03;;;13.60;99.90;;;;;;11476255;25;20001;-59
2024/04/12 04:04:28;;;;;;;18.55;8.82;;;13.60;99.90;;;;;;11481012;25;20021;-59
2024/04/12 04:09:32;;;;;;;16.88;7.75;;;13.70;99.90;;;;;;11491600;25;20004;-60
2024/04/12 04:14:37;;;;;;;16.17;6.70;;;13.70;99.90;;;;;;11494292;25;20017;-57
2024/04/12 04:19:45;;;;;;;15.13;7.32;;;14.10;99.90;;;;;;11486052;25;20005;-58
2024/04/12 04:24:53;;;;;;;20.52;9.82;;;13.90;99.90;;;;;;11489265;25;20005;-58
2024/04/12 04:29:57;;;;;;;16.13;5.78;;;13.60;99.90;;;;;;11485203;25;20082;-58
2024/04/12 04:35:11;;;;;;;15.63;7.85;;;13.90;99.90;;;;;;11490150;25;20020;-60
2024/04/12 04:40:19;;;;;;;9.85;4.80;;;13.70;99.90;;;;;;11473663;25;20013;-59
2024/04/12 04:45:31;;;;;;;15.10;6.57;;;13.60;99.90;;;;;;11482177;25;20027;-58
2024/04/12 04:50:38;;;;;;;16.73;6.75;;;13.90;99.90;;;;;;11482741;25;20935;-60
2024/04/12 04:55:44;;;;;;;14.30;7.45;;;13.80;99.90;;;;;;11478804;25;20008;-61
2024/04/12 05:00:52;;;;;;;13.55;7.72;;;13.80;99.90;;;;;;11472536;25;20019;-61
2024/04/12 05:06:05;;;;;;;16.48;6.70;;;13.90;99.90;;;;;;11472085;25;20040;-60
2024/04/12 05:11:17;;;;;;;18.27;7.07;;;13.90;99.90;;;;;;11471694;25;20080;-60
2024/04/12 05:16:23;;;;;;;19.33;7.45;;;14.00;99.90;;;;;;11477319;25;20032;-59
2024/04/12 05:21:35;;;;;;;13.98;7.00;;;13.50;99.90;;;;;;11468464;25;20021;-60
2024/04/12 05:26:46;;;;;;;20.15;6.75;;;14.00;99.90;;;;;;11469987;25;20017;-59
2024/04/12 05:31:56;;;;;;;14.45;7.10;;;14.00;99.90;;;;;;11463385;25;20417;-60
2024/04/12 05:37:06;;;;;;;15.80;6.90;;;13.60;99.90;;;;;;11467060;25;20004;-61
2024/04/12 05:42:16;;;;;;;15.63;7.38;;;13.70;99.90;;;;;;11464743;25;20016;-59
2024/04/12 05:47:21;;;;;;;19.50;7.07;;;13.90;99.90;;;;;;11462548;25;20000;-59
2024/04/12 05:52:34;;;;;;;12.05;7.00;;;14.00;99.90;;;;;;11459658;25;20017;-58
2024/04/12 05:57:41;;;;;;;15.95;5.82;;;13.80;99.90;;;;;;11473775;25;20001;-58
2024/04/12 06:02:48;;;;;;;6.70;3.45;;;13.70;99.90;;;;;;11465081;25;20016;-59
2024/04/12 06:08:03;;;;;;;8.60;4.20;;;17.20;99.90;;;;;;11472016;25;20020;-58
2024/04/12 06:13:08;;;;;;;15.32;4.85;;;18.30;99.90;;;;;;11486323;25;23167;-58
2024/04/12 06:18:16;;;;;;;14.00;5.40;;;18.90;99.90;;;;;;11476176;25;20005;-59
2024/04/12 06:23:22;;;;;;;8.60;4.07;;;19.10;99.90;;;;;;11474012;25;20005;-59
2024/04/12 06:28:30;;;;;;;14.73;4.10;;;18.90;99.90;;;;;;11469865;25;20381;-57
2024/04/12 06:33:34;;;;;;;13.00;3.97;;;19.40;99.90;;;;;;11476588;25;20020;-59
2024/04/12 06:38:42;;;;;;;12.85;3.25;;;19.30;99.90;;;;;;11455996;25;20102;-58
2024/04/12 06:43:47;;;;;;;12.32;2.85;;;19.20;99.90;;;;;;11451837;25;20738;-58
2024/04/12 06:49:07;;;;;;;7.38;2.85;;;18.80;99.90;;;;;;11461492;25;20008;-60
2024/04/12 06:54:16;;;;;;;9.73;3.47;;;19.30;99.90;;;;;;11466572;25;22984;-59
2024/04/12 06:59:35;;;;;;;7.93;2.65;;;19.40;99.90;;;;;;11478676;25;20675;-60
2024/04/12 07:04:42;;;;;;;6.22;2.60;;;19.20;99.90;;;;;;11454478;25;20080;-60
2024/04/12 07:09:57;;;;;;;15.07;3.42;;;19.40;99.90;;;;;;11458932;25;20015;-60
2024/04/12 07:15:09;;;;;;;14.18;4.45;;;19.30;99.90;;;;;;11462760;25;20397;-58
2024/04/12 07:20:27;;;;;;;12.90;3.08;;;15.90;99.90;;;;;;11460678;25;20031;-60
2024/04/12 07:25:39;;;;;;;10.23;4.10;;;15.30;99.90;;;;;;11460658;25;20059;-59
2024/04/12 07:30:49;;;;;;;14.27;4.33;;;15.20;99.90;;;;;;11464202;25;20028;-58
2024/04/12 07:35:59;;;;;;;10.10;3.40;;;15.20;99.90;;;;;;11463276;25;20024;-59
2024/04/12 07:41:18;;;;;;;13.75;3.35;;;15.20;99.90;;;;;;11455654;25;20404;-59
2024/04/12 07:46:27;;;;;;;12.90;4.18;;;15.20;99.90;;;;;;11465156;25;20012;-60
2024/04/12 07:51:47;;;;;;;18.42;5.85;;;15.50;99.90;;;;;;11464575;25;20609;-60
2024/04/12 07:57:07;;;;;;;17.88;4.80;;;15.20;99.90;;;;;;11432855;25;20015;-60
2024/04/12 08:02:17;;;;;;;7.13;2.42;;;15.00;99.90;;;;;;11457438;25;21273;-59
2024/04/12 08:07:29;;;;;;;12.88;5.82;;;15.20;99.90;;;;;;11450652;25;20471;-60
2024/04/12 08:12:38;;;;;;;11.35;4.68;;;15.20;99.90;;;;;;11443489;25;20026;-62
2024/04/12 08:17:48;;;;;;;13.38;4.30;;;15.20;99.90;;;;;;11448715;25;20761;-58
2024/04/12 08:22:52;;;;;;;16.35;5.03;;;15.00;99.90;;;;;;11468895;25;20027;-59
2024/04/12 08:27:59;;;;;;;13.23;4.13;;;15.10;99.90;;;;;;11477833;25;20095;-61
2024/04/12 08:33:14;;;;;;;18.17;5.15;;;15.30;99.90;;;;;;11473530;25;20004;-61
2024/04/12 08:38:21;;;;;;;10.27;3.38;;;15.30;99.90;;;;;;11459224;25;20861;-59
2024/04/12 08:43:41;;;;;;;10.30;3.13;;;15.50;99.90;;;;;;11460451;25;20020;-59
2024/04/12 08:48:51;;;;;;;13.35;4.15;;;15.50;99.90;;;;;;11466662;25;20033;-58
2024/04/12 08:53:56;;;;;;;16.05;4.13;;;15.40;99.90;;;;;;11470514;25;20009;-59
2024/04/12 08:59:05;;;;;;;17.42;3.95;;;15.30;99.90;;;;;;11463423;25;20019;-61
2024/04/12 09:04:14;;;;;;;12.70;3.92;;;15.40;99.90;;;;;;11478010;25;20000;-57
2024/04/12 09:09:28;;;;;;;13.20;3.65;;;15.40;99.90;;;;;;11483407;25;20641;-59
2024/04/12 09:14:40;;;;;;;11.00;3.80;;;15.50;99.90;;;;;;11470075;25;20015;-59
2024/04/12 09:19:50;;;;;;;9.70;2.97;;;15.40;99.90;;;;;;11471072;25;20015;-59
2024/04/12 09:25:14;;;;;;;11.02;3.45;;;15.50;99.90;;;;;;11477179;25;20446;-60
2024/04/12 09:35:45;;;;;;;13.00;3.03;;;15.80;99.90;;;;;;11416169;25;20344;-59
2024/04/12 09:41:02;;;;;;;13.02;3.90;;;15.70;99.90;;;;;;11465221;25;20019;-57
2024/04/12 09:46:17;;;;;;;21.25;4.07;;;15.50;99.90;;;;;;11483326;25;20016;-58
2024/04/12 10:39:58;;;;;;;18.70;4.68;;;16.00;99.90;;;;;;11471616;25;20004;-60
2024/04/12 10:45:07;;;;;;;16.25;5.00;;;16.20;99.90;;;;;;11475322;25;20028;-60
2024/04/12 10:50:19;;;;;;;14.15;4.80;;;16.10;99.90;;;;;;11460886;25;20020;-60
2024/04/12 10:55:25;;;;;;;15.80;4.80;;;16.30;99.90;;;;;;11454903;25;20016;-59
2024/04/12 11:00:30;;;;;;;15.43;4.60;;;16.20;99.90;;;;;;11463345;25;20023;-60
2024/04/12 11:05:44;;;;;;;21.38;3.80;;;16.50;99.90;;;;;;11474403;25;22985;-59
2024/04/12 11:11:15;;;;;;;11.35;3.25;;;16.40;99.90;;;;;;11466584;25;20020;-59
2024/04/12 11:32:28;;;;;;;11.13;3.67;;;16.70;99.90;;;;;;11458784;25;20004;-61
2024/04/12 11:37:40;;;;;;;14.30;2.08;;;16.80;99.90;;;;;;11456896;25;20009;-60
2024/04/12 11:42:45;;;;;;;7.22;2.67;;;17.10;99.90;;;;;;11451856;25;20004;-62
2024/04/12 11:47:50;;;;;;;6.20;2.03;;;17.10;99.90;;;;;;11443561;25;21643;-60
2024/04/12 11:53:06;;;;;;;7.45;2.75;;;17.40;99.90;;;;;;11380784;25;20005;-61
2024/04/12 11:58:11;;;;;;;6.78;1.90;;;;;;;;;;11377411;25;20517;-61
2024/04/12 12:03:15;;;;;;;6.53;1.70;;;17.50;99.90;;;;;;11386215;25;20009;-59
2024/04/12 12:08:37;;;;;;;5.82;1.77;;;17.80;99.90;;;;;;11371191;25;20172;-61
2024/04/12 12:13:43;;;;;;;6.80;1.95;;;17.50;99.90;;;;;;11391323;25;20843;-62
2024/04/12 12:18:53;;;;;;;8.38;1.55;;;17.60;99.90;;;;;;11380494;25;21539;-61
2024/04/12 12:24:00;;;;;;;11.30;1.65;;;18.00;99.90;;;;;;11381328;25;20032;-61
2024/04/12 12:29:08;;;;;;;7.25;1.70;;;18.50;99.90;;;;;;11370283;25;20045;-61
2024/04/12 12:34:14;;;;;;;3.45;1.55;;;18.20;99.90;;;;;;11381393;25;20005;-61
2024/04/12 12:39:24;;;;;;;5.05;1.10;;;18.00;99.90;;;;;;11382777;25;20020;-61
2024/04/12 12:44:28;;;;;;;6.80;2.05;;;17.70;99.90;;;;;;11387807;25;20078;-60
2024/04/12 12:49:40;;;;;;;4.47;1.33;;;18.00;99.90;;;;;;11397804;25;20025;-60
2024/04/12 12:54:47;;;;;;;11.32;1.38;;;18.10;99.90;;;;;;11399158;25;20105;-61
2024/04/12 12:59:56;;;;;;;9.10;1.77;;;18.60;99.90;;;;;;11392472;25;20874;-61
2024/04/12 13:05:01;;;;;;;4.65;1.10;;;18.60;99.90;;;;;;11383264;25;20020;-61
2024/04/12 13:10:12;;;;;;;8.02;1.15;;;19.20;99.90;;;;;;11384304;25;20010;-61
2024/04/12 13:15:19;;;;;;;15.20;1.40;;;19.40;99.90;;;;;;11396130;25;20126;-60
2024/04/12 13:20:33;;;;;;;7.32;1.63;;;19.30;99.90;;;;;;11385642;25;20033;-61
2024/04/12 13:25:42;;;;;;;4.47;1.10;;;19.70;99.90;;;;;;11385949;25;20017;-61
2024/04/12 13:30:49;;;;;;;7.30;0.93;;;20.00;99.90;;;;;;11387494;25;20429;-61
2024/04/12 13:35:54;;;;;;;6.82;0.90;;;19.90;99.90;;;;;;11388331;25;20006;-61
2024/04/12 13:41:04;;;;;;;4.35;0.80;;;20.30;99.90;;;;;;11389551;25;20029;-61
2024/04/12 13:51:29;;;;;;;8.20;1.52;;;20.80;99.90;;;;;;11388253;25;20001;-61
2024/04/12 13:56:37;;;;;;;5.72;1.60;;;21.00;99.90;;;;;;11385251;25;20013;-61
2024/04/12 14:01:44;;;;;;;6.97;1.67;;;20.80;99.90;;;;;;11398134;25;20718;-60
2024/04/12 14:06:51;;;;;;;6.28;1.63;;;21.20;99.90;;;;;;11387588;25;20021;-60
2024/04/12 14:11:58;;;;;;;6.72;1.77;;;21.30;99.90;;;;;;11391068;25;20061;-60
2024/04/12 14:17:05;;;;;;;5.20;1.67;;;21.40;99.90;;;;;;11381342;25;20101;-60
2024/04/12 14:22:09;;;;;;;9.90;1.98;;;21.40;99.90;;;;;;11371625;25;20753;-62
2024/04/12 14:27:17;;;;;;;7.10;1.95;;;21.60;99.90;;;;;;11381768;25;20856;-61
2024/04/12 14:32:22;;;;;;;8.98;1.65;;;20.90;99.90;;;;;;11399349;25;20024;-62
2024/04/12 14:37:31;;;;;;;7.85;1.70;;;20.70;99.90;;;;;;11379214;25;20096;-62
2024/04/12 14:42:39;;;;;;;9.30;2.03;;;20.30;99.90;;;;;;11391958;25;20454;-62
2024/04/12 14:47:43;;;;;;;5.10;1.40;;;20.60;99.90;;;;;;11401906;25;20770;-62
2024/04/12 14:52:48;;;;;;;8.02;1.58;;;20.60;99.90;;;;;;11396561;25;20005;-62
2024/04/12 14:58:03;;;;;;;7.45;1.50;;;20.60;99.90;;;;;;11408762;25;20067;-62
2024/04/12 15:51:38;;;;;;;5.75;1.65;;;19.50;99.90;;;;;;11400305;25;20013;-63
2024/04/12 16:12:53;;;;;;;6.65;1.58;;;19.20;99.90;;;;;;11385508;25;20009;-63
2024/04/12 16:18:01;;;;;;;10.27;1.95;;;19.00;99.90;;;;;;11372348;25;20744;-61
2024/04/12 16:23:10;;;;;;;7.00;1.38;;;19.00;99.90;;;;;;11383687;25;20006;-61
2024/04/12 16:28:20;;;;;;;8.38;1.65;;;19.00;99.90;;;;;;11360958;25;20092;-62
2024/04/12 16:33:28;;;;;;;8.68;1.60;;;18.80;99.90;;;;;;11381654;25;20388;-62
2024/04/12 16:38:36;;;;;;;6.35;1.95;;;18.70;99.90;;;;;;11378343;25;20595;-63
2024/04/12 16:43:41;;;;;;;8.93;2.00;;;;;;;;;;11383693;25;20515;-62
2024/04/12 16:48:51;;;;;;;5.68;1.50;;;;;;;;;;11392036;25;20014;-62
2024/04/12 16:53:58;;;;;;;3.47;1.25;;;18.00;99.90;;;;;;11383946;25;20012;-62
2024/04/12 16:59:02;;;;;;;7.70;1.27;;;18.40;99.90;;;;;;11381669;25;20024;-65
2024/04/12 17:04:12;;;;;;;7.68;1.50;;;18.50;99.90;;;;;;11389416;25;20020;-64
2024/04/12 17:09:20;;;;;;;6.93;1.63;;;18.30;99.90;;;;;;11377658;25;23007;-62
2024/04/12 17:14:30;;;;;;;14.25;1.77;;;17.90;99.90;;;;;;11387960;25;20008;-61
2024/04/12 17:19:39;;;;;;;5.18;1.50;;;17.60;99.90;;;;;;11382821;25;20467;-61
2024/04/12 17:24:46;;;;;;;7.18;1.60;;;17.60;99.90;;;;;;11391374;25;20123;-61
2024/04/12 17:29:51;;;;;;;3.40;1.20;;;17.40;99.90;;;;;;11398308;25;20040;-61
2024/04/12 17:34:58;;;;;;;4.13;1.08;;;17.40;99.90;;;;;;11385488;25;20018;-61
2024/04/12 17:40:11;;;;;;;13.32;1.80;;;17.30;99.90;;;;;;11392409;25;20032;-60
2024/04/12 17:45:15;;;;;;;;;;;17.10;99.90;;;;;;11387119;25;20099;-60
2024/04/12 17:50:23;;;;;;;5.57;1.20;;;17.00;99.90;;;;;;11402855;25;19923;-61
2024/04/12 17:55:29;;;;;;;5.30;1.15;;;17.00;99.90;;;;;;11391560;25;20142;-60
2024/04/12 18:00:33;;;;;;;9.30;1.40;;;17.00;99.90;;;;;;11377685;25;20061;-60
2024/04/12 18:05:42;;;;;;;7.35;1.80;;;16.90;99.90;;;;;;11393787;25;20692;-62
2024/04/12 18:10:48;;;;;;;13.70;1.88;;;17.10;99.90;;;;;;11399099;25;20020;-62
2024/04/12 18:15:52;;;;;;;8.23;1.70;;;16.40;99.90;;;;;;11387943;25;20020;-60
2024/04/12 18:21:08;;;;;;;9.68;2.25;;;16.80;99.90;;;;;;11390881;25;20399;-60
2024/04/12 18:26:15;;;;;;;11.25;2.13;;;16.50;99.90;;;;;;11383608;25;20025;-61
2024/04/12 18:31:19;;;;;;;6.22;1.30;;;16.40;99.90;;;;;;11392876;25;20090;-62
2024/04/12 18:36:34;;;;;;;10.52;1.83;;;16.40;99.90;;;;;;11396626;25;20121;-60
2024/04/12 18:46:59;;;;;;;10.65;2.45;;;16.30;99.90;;;;;;11407514;25;20117;-60
2024/04/12 18:52:08;;;;;;;10.27;2.38;;;15.90;99.90;;;;;;11391063;25;20888;-60
2024/04/12 18:57:15;;;;;;;7.28;1.30;;;15.70;99.90;;;;;;11398007;25;20009;-61
2024/04/12 19:02:20;;;;;;;9.57;1.50;;;16.00;99.90;;;;;;11390815;25;20011;-61
2024/04/12 19:07:30;;;;;;;10.52;1.77;;;16.10;99.90;;;;;;11387214;25;20019;-61
2024/04/12 19:12:40;;;;;;;4.95;1.13;;;16.30;99.90;;;;;;11404132;25;20005;-61
2024/04/12 19:17:46;;;;;;;5.82;1.58;;;16.30;99.90;;;;;;11387131;25;20019;-61
2024/04/12 19:22:59;;;;;;;5.80;1.48;;;16.10;99.90;;;;;;11380264;25;20069;-61
2024/04/12 19:28:08;;;;;;;5.32;1.60;;;16.10;99.90;;;;;;11383053;25;20052;-60
2024/04/12 19:33:16;;;;;;;4.88;1.80;;;16.10;99.90;;;;;;11389122;25;20018;-62
2024/04/12 19:38:25;;;;;;;4.78;1.63;;;16.20;99.90;;;;;;11386597;25;20014;-59
2024/04/12 19:43:32;;;;;;;4.32;1.38;;;16.40;99.90;;;;;;11390757;25;20015;-61
2024/04/12 19:48:42;;;;;;;7.82;1.02;;;16.30;99.90;;;;;;11393661;25;20029;-60
2024/04/12 19:53:53;;;;;;;3.28;1.17;;;16.30;99.90;;;;;;11396136;25;20054;-60
2024/04/12 19:58:59;;;;;;;3.80;1.00;;;16.20;99.90;;;;;;11381822;25;20756;-60
2024/04/12 20:04:05;;;;;;;2.97;1.10;;;16.10;99.90;;;;;;11385168;25;20005;-60
2024/04/12 20:09:19;;;;;;;2.97;0.80;;;16.10;99.90;;;;;;11398865;25;20025;-61
2024/04/12 20:14:27;;;;;;;3.65;1.02;;;16.20;99.90;;;;;;11393120;25;20016;-60
2024/04/12 20:19:33;;;;;;;6.13;1.52;;;16.00;99.90;;;;;;11381117;25;20009;-60
2024/04/12 20:24:43;;;;;;;4.47;1.02;;;16.20;99.90;;;;;;11401657;25;20043;-60
2024/04/12 20:30:06;;;;;;;4.45;1.25;;;16.30;99.90;;;;;;11397512;25;20534;-60
2024/04/12 20:35:32;;;;;;;4.53;1.13;;;16.30;99.90;;;;;;11398710;25;20048;-61
2024/04/12 20:40:39;;;;;;;4.20;1.45;;;16.30;99.90;;;;;;11383535;25;20065;-60
2024/04/12 20:45:51;;;;;;;8.18;1.98;;;16.10;99.90;;;;;;11394075;25;20103;-59
2024/04/12 20:51:00;;;;;;;5.07;1.20;;;16.00;99.90;;;;;;11410601;25;20006;-60
2024/04/12 20:56:10;;;;;;;2.90;1.10;;;16.00;99.90;;;;;;11400637;25;20457;-60
2024/04/12 21:01:17;;;;;;;4.65;1.10;;;16.10;99.90;;;;;;11391931;25;20013;-61
2024/04/12 21:06:22;;;;;;;7.05;1.80;;;15.90;99.90;;;;;;11412694;25;20017;-59
2024/04/12 21:11:35;;;;;;;5.53;1.33;;;15.50;99.90;;;;;;11390572;25;20006;-59
2024/04/12 21:16:43;;;;;;;8.80;2.08;;;15.50;99.90;;;;;;11399853;25;20969;-61
2024/04/12 21:21:48;;;;;;;9.77;2.08;;;15.50;99.90;;;;;;11395717;25;20004;-60
2024/04/12 21:26:56;;;;;;;6.90;1.98;;;15.50;99.90;;;;;;11391816;25;20021;-62
2024/04/12 21:32:05;;;;;;;5.32;2.03;;;15.80;99.90;;;;;;11395829;25;20018;-60
2024/04/12 21:37:09;;;;;;;8.90;2.10;;;15.50;99.90;;;;;;11399756;25;20344;-60
2024/04/12 21:42:16;;;;;;;4.72;2.00;;;15.30;99.90;;;;;;11396443;25;20344;-59
2024/04/12 21:47:22;;;;;;;4.60;1.75;;;15.10;99.90;;;;;;11403316;25;20010;-61
2024/04/12 21:52:27;;;;;;;4.22;1.70;;;15.50;99.90;;;;;;11407828;25;20761;-61
2024/04/12 21:57:49;;;;;;;7.90;2.40;;;15.20;99.90;;;;;;11377362;25;20013;-60
2024/04/12 22:02:56;;;;;;;5.35;1.90;;;15.00;99.90;;;;;;11398331;25;20028;-61
2024/04/12 22:08:03;;;;;;;5.80;2.17;;;15.10;99.90;;;;;;11396489;25;20355;-60
2024/04/12 22:13:12;;;;;;;3.60;1.80;;;15.20;99.90;;;;;;11406705;25;20010;-62
2024/04/12 22:18:19;;;;;;;6.18;1.70;;;15.00;99.90;;;;;;11418061;25;20177;-60
2024/04/12 22:23:25;;;;;;;8.57;2.20;;;15.00;99.90;;;;;;11398978;25;20001;-60
2024/04/12 22:28:39;;;;;;;7.10;2.65;;;15.00;99.90;;;;;;11400228;25;20662;-60
2024/04/12 22:33:47;;;;;;;4.30;1.50;;;15.00;99.90;;;;;;11396016;25;20032;-63
2024/04/12 22:38:53;;;;;;;7.00;1.70;;;15.10;99.90;;;;;;11404943;25;20009;-61
2024/04/12 22:44:01;;;;;;;5.63;1.77;;;14.90;99.90;;;;;;11401048;25;20462;-60
2024/04/12 22:49:05;;;;;;;6.80;1.70;;;15.00;99.90;;;;;;11409884;25;20013;-61
2024/04/12 22:54:12;;;;;;;6.10;1.50;;;14.90;99.90;;;;;;11408321;25;20080;-63
2024/04/12 22:59:24;;;;;;;3.45;1.20;;;15.00;99.90;;;;;;11405434;25;20060;-59
2024/04/12 23:04:28;;;;;;;9.67;1.53;;;15.10;99.90;;;;;;11395041;25;20024;-62
2024/04/12 23:09:33;;;;;;;8.13;1.90;;;14.90;99.90;;;;;;11401808;25;20008;-62
2024/04/12 23:14:46;;;;;;;7.53;1.33;;;14.80;99.90;;;;;;11390615;25;20580;-61
2024/04/12 23:19:53;;;;;;;6.00;1.00;;;14.80;99.90;;;;;;11401413;25;20044;-61
2024/04/12 23:25:01;;;;;;;3.10;0.93;;;15.00;99.90;;;;;;11394686;25;20015;-63
2024/04/12 23:30:12;;;;;;;8.85;1.40;;;14.80;99.90;;;;;;11402086;25;20088;-60
2024/04/12 23:35:16;;;;;;;4.65;1.60;;;14.70;99.90;;;;;;11389361;25;20353;-62
2024/04/12 23:40:20;;;;;;;6.03;1.60;;;14.40;99.90;;;;;;11387514;25;20009;-62
2024/04/12 23:45:27;;;;;;;8.20;1.58;;;14.50;99.90;;;;;;11409984;25;20795;-62
2024/04/12 23:50:34;;;;;;;6.13;1.13;;;14.50;99.90;;;;;;11399624;25;20026;-58
2024/04/12 23:55:38;;;;;;;6.90;1.45;;;14.70;99.90;;;;;;11405750;25;20014;-60
